createdAt,value
2019-03-09T00:00:35.053Z,99872.55
2019-03-09T00:03:03.454Z,99874.39
2019-03-09T00:05:31.851Z,99862.02
2019-03-09T00:08:00.271Z,99869.73
2019-03-09T00:10:28.649Z,99867.44
2019-03-09T00:12:57.053Z,99870.91
2019-03-09T00:15:25.634Z,99865.51
2019-03-09T00:17:54.012Z,99864.37
2019-03-09T00:20:22.427Z,99864.73
2019-03-09T00:23:08.632Z,99869.02
2019-03-09T00:25:38.832Z,99859.00
2019-03-09T00:28:08.852Z,99853.57
2019-03-09T00:30:44.685Z,99863.75
2019-03-09T00:33:13.054Z,99866.44
2019-03-09T00:35:41.469Z,99871.55
2019-03-09T00:38:09.882Z,99870.87
2019-03-09T00:40:38.261Z,99871.68
2019-03-09T00:43:06.656Z,99878.14
2019-03-09T00:45:35.064Z,99868.73
2019-03-09T00:48:03.540Z,99865.78
2019-03-09T00:50:32.219Z,99855.94
2019-03-09T00:53:00.609Z,99852.47
2019-03-09T00:55:29.026Z,99855.61
2019-03-09T00:58:00.193Z,99848.72
2019-03-09T01:00:28.618Z,99832.60
2019-03-09T01:02:57.025Z,99837.20
2019-03-09T01:05:25.472Z,99822.53
2019-03-09T01:07:53.997Z,99827.98
2019-03-09T01:10:22.462Z,99821.41
2019-03-09T01:12:50.870Z,99822.55
2019-03-09T01:15:19.394Z,99818.59
2019-03-09T01:17:47.879Z,99825.85
2019-03-09T01:20:16.801Z,99817.13
2019-03-09T01:22:45.196Z,99815.12
2019-03-09T01:25:14.033Z,99821.41
2019-03-09T01:27:42.487Z,99797.45
2019-03-09T01:30:14.126Z,99791.66
2019-03-09T01:32:42.617Z,99790.64
2019-03-09T01:35:11.112Z,99775.33
2019-03-09T01:37:39.878Z,99775.33
2019-03-09T01:40:11.345Z,99774.83
2019-03-09T01:42:39.830Z,99763.90
2019-03-09T01:45:13.718Z,99766.38
2019-03-09T01:47:42.129Z,99696.70
2019-03-09T01:50:10.761Z,99756.96
2019-03-09T01:52:39.268Z,99760.27
2019-03-09T01:55:10.208Z,99753.66
2019-03-09T01:57:38.685Z,99750.40
2019-03-09T02:00:09.902Z,99740.50
2019-03-09T02:02:38.291Z,99737.15
2019-03-09T02:05:08.520Z,99727.07
2019-03-09T02:07:37.017Z,99729.02
2019-03-09T02:10:11.007Z,99727.36
2019-03-09T02:12:39.485Z,99716.28
2019-03-09T02:15:12.919Z,99712.33
2019-03-09T02:17:41.326Z,99711.66
2019-03-09T02:20:17.352Z,99703.56
2019-03-09T02:22:45.821Z,99696.13
2019-03-09T02:25:14.603Z,99701.38
2019-03-09T02:27:43.002Z,99694.42
2019-03-09T02:30:20.599Z,99702.19
2019-03-09T02:32:48.991Z,99690.47
2019-03-09T02:35:18.367Z,99696.08
2019-03-09T02:37:46.826Z,99697.39
2019-03-09T02:40:23.353Z,99682.80
2019-03-09T02:42:51.779Z,99681.79
2019-03-09T02:45:23.104Z,99680.95
2019-03-09T02:47:51.467Z,99688.33
2019-03-09T02:50:20.035Z,99676.09
2019-03-09T02:52:48.405Z,99678.23
2019-03-09T02:55:16.958Z,99670.48
2019-03-09T02:57:45.345Z,99671.13
2019-03-09T03:00:21.223Z,99655.27
2019-03-09T03:02:51.309Z,99649.48
2019-03-09T03:05:19.781Z,99659.25
2019-03-09T03:07:48.250Z,99669.83
2019-03-09T03:10:16.730Z,99662.72
2019-03-09T03:12:45.106Z,99652.63
2019-03-09T03:15:28.273Z,99637.92
2019-03-09T03:17:56.708Z,99637.42
2019-03-09T03:20:25.272Z,99635.13
2019-03-09T03:22:53.659Z,99627.52
2019-03-09T03:25:22.050Z,99618.27
2019-03-09T03:27:50.517Z,99615.62
2019-03-09T03:30:18.899Z,99607.22
2019-03-09T03:32:47.466Z,99599.63
2019-03-09T03:35:15.953Z,99598.78
2019-03-09T03:37:44.361Z,99586.05
2019-03-09T03:40:13.409Z,99599.27
2019-03-09T03:42:41.943Z,99608.21
2019-03-09T03:45:12.542Z,99602.92
2019-03-09T03:47:41.009Z,99585.89
2019-03-09T03:50:09.588Z,99547.61
2019-03-09T03:52:37.963Z,99597.19
2019-03-09T03:55:08.595Z,99586.27
2019-03-09T03:57:37.139Z,99591.22
2019-03-09T04:00:08.591Z,99582.47
2019-03-09T04:02:37.224Z,99569.25
2019-03-09T04:05:06.355Z,99575.89
2019-03-09T04:07:35.484Z,99574.73
2019-03-09T04:10:05.413Z,99568.02
2019-03-09T04:12:34.014Z,99584.72
2019-03-09T04:15:02.455Z,99573.16
2019-03-09T04:17:30.869Z,99574.00
2019-03-09T04:19:59.247Z,99572.38
2019-03-09T04:22:27.646Z,99563.19
2019-03-09T04:24:56.146Z,99587.98
2019-03-09T04:27:24.518Z,99584.84
2019-03-09T04:29:52.980Z,99595.33
2019-03-09T04:32:21.359Z,99602.61
2019-03-09T04:34:49.764Z,99606.27
2019-03-09T04:37:18.160Z,99595.90
2019-03-09T04:39:46.565Z,99601.86
2019-03-09T04:42:15.020Z,99610.92
2019-03-09T04:44:43.415Z,99608.65
2019-03-09T04:47:11.801Z,99619.72
2019-03-09T04:49:40.202Z,99618.58
2019-03-09T04:52:08.586Z,99626.66
2019-03-09T04:54:36.985Z,99625.05
2019-03-09T04:57:05.356Z,99630.34
2019-03-09T04:59:33.750Z,99627.75
2019-03-09T05:02:02.134Z,99624.78
2019-03-09T05:04:38.899Z,99633.07
2019-03-09T05:07:07.294Z,99635.22
2019-03-09T05:09:44.721Z,99639.21
2019-03-09T05:12:13.108Z,99646.14
2019-03-09T05:14:41.595Z,99629.48
2019-03-09T05:17:09.987Z,99636.77
2019-03-09T05:19:38.402Z,99644.69
2019-03-09T05:22:06.793Z,99637.92
2019-03-09T05:24:35.183Z,99612.54
2019-03-09T05:27:03.583Z,99624.61
2019-03-09T05:29:32.012Z,99618.34
2019-03-09T05:32:00.371Z,99633.17
2019-03-09T05:34:28.783Z,99625.59
2019-03-09T05:36:57.180Z,99627.27
2019-03-09T05:39:25.570Z,99623.97
2019-03-09T05:41:53.976Z,99620.50
2019-03-09T05:44:22.362Z,99626.93
2019-03-09T05:46:50.825Z,99634.67
2019-03-09T05:49:19.227Z,99622.64
2019-03-09T05:52:19.208Z,99625.61
2019-03-09T05:54:47.587Z,99640.94
2019-03-09T05:57:15.976Z,99622.98
2019-03-09T05:59:44.358Z,99625.78
2019-03-09T06:03:34.681Z,99630.89
2019-03-09T06:06:03.188Z,99635.83
2019-03-09T06:08:31.651Z,99633.84
2019-03-09T06:11:00.068Z,99663.49
2019-03-09T06:13:28.482Z,99644.70
2019-03-09T06:15:56.870Z,99648.99
2019-03-09T06:18:25.254Z,99675.03
2019-03-09T06:20:53.638Z,99661.86
2019-03-09T06:23:22.111Z,99668.09
2019-03-09T06:25:50.495Z,99655.89
2019-03-09T06:28:18.906Z,99673.02
2019-03-09T06:30:47.286Z,99680.59
2019-03-09T06:33:21.126Z,99691.48
2019-03-09T06:36:10.062Z,99695.27
2019-03-09T06:38:56.655Z,99715.55
2019-03-09T06:41:51.401Z,99716.55
2019-03-09T06:44:19.811Z,99708.62
2019-03-09T06:46:50.013Z,99699.56
2019-03-09T06:49:18.489Z,99705.34
2019-03-09T06:51:46.891Z,99697.58
2019-03-09T06:54:15.312Z,99709.78
2019-03-09T06:56:43.704Z,99730.89
2019-03-09T06:59:12.120Z,99733.86
2019-03-09T07:01:40.514Z,99738.48
2019-03-09T07:04:08.916Z,99748.38
2019-03-09T07:06:37.314Z,99748.18
2019-03-09T07:09:06.566Z,99751.81
2019-03-09T07:11:34.963Z,99778.20
2019-03-09T07:14:39.242Z,99776.23
2019-03-09T07:17:07.636Z,99796.52
2019-03-09T07:19:36.131Z,99791.70
2019-03-09T07:22:04.531Z,99775.57
2019-03-09T07:24:32.996Z,99777.38
2019-03-09T07:27:01.387Z,99796.00
2019-03-09T07:29:29.775Z,99788.09
2019-03-09T07:31:58.242Z,99792.88
2019-03-09T07:34:27.482Z,99790.73
2019-03-09T07:36:55.939Z,99798.29
2019-03-09T07:39:24.337Z,99805.06
2019-03-09T07:41:52.721Z,99829.62
2019-03-09T07:44:21.106Z,99824.00
2019-03-09T07:46:49.505Z,99836.38
2019-03-09T07:49:17.924Z,99842.48
2019-03-09T07:51:46.974Z,99831.92
2019-03-09T07:54:15.365Z,99842.48
2019-03-09T07:56:43.775Z,99836.55
2019-03-09T07:59:12.334Z,99836.55
2019-03-09T08:01:40.732Z,99845.14
2019-03-09T08:04:11.101Z,99844.48
2019-03-09T08:06:39.521Z,99835.54
2019-03-09T08:09:08.144Z,99828.44
2019-03-09T08:11:36.575Z,99825.63
2019-03-09T08:14:05.040Z,99821.47
2019-03-09T08:16:35.942Z,99822.95
2019-03-09T08:19:03.564Z,99828.08
2019-03-09T08:21:32.050Z,99828.23
2019-03-09T08:24:00.425Z,99832.86
2019-03-09T08:26:28.847Z,99827.87
2019-03-09T08:28:57.243Z,99831.99
2019-03-09T08:31:25.695Z,99844.67
2019-03-09T08:33:54.092Z,99833.77
2019-03-09T08:36:22.702Z,99844.55
2019-03-09T08:38:51.110Z,99843.19
2019-03-09T08:41:19.541Z,99858.20
2019-03-09T08:43:47.934Z,99857.34
2019-03-09T08:46:16.330Z,99858.05
2019-03-09T08:48:44.752Z,99851.52
2019-03-09T08:51:13.137Z,99856.25
2019-03-09T08:53:42.596Z,99848.98
2019-03-09T08:56:10.993Z,99857.91
2019-03-09T08:58:39.478Z,99850.47
2019-03-09T09:01:07.990Z,99844.97
2019-03-09T09:03:36.364Z,99848.96
2019-03-09T09:06:04.762Z,99839.97
2019-03-09T09:08:33.186Z,99840.80
2019-03-09T09:11:01.648Z,99842.22
2019-03-09T09:13:30.088Z,99845.23
2019-03-09T09:15:58.502Z,99846.20
2019-03-09T09:18:26.920Z,99846.20
2019-03-09T09:20:55.308Z,99839.58
2019-03-09T09:23:23.787Z,99839.58
2019-03-09T09:25:52.225Z,99852.48
2019-03-09T09:28:20.618Z,99852.48
2019-03-09T09:30:49.071Z,99852.55
2019-03-09T09:33:17.494Z,99862.64
2019-03-09T09:35:46.134Z,99859.67
2019-03-09T09:38:14.597Z,99860.32
2019-03-09T09:40:43.000Z,99849.86
2019-03-09T09:43:11.497Z,99849.86
2019-03-09T09:45:39.960Z,99863.92
2019-03-09T09:48:08.553Z,99864.62
2019-03-09T09:50:36.927Z,99790.84
2019-03-09T09:53:05.490Z,99855.98
2019-03-09T09:55:33.874Z,99891.39
2019-03-09T09:58:02.277Z,99861.47
2019-03-09T10:00:30.756Z,99871.34
2019-03-09T10:02:59.320Z,99871.34
2019-03-09T10:05:27.793Z,99860.61
2019-03-09T10:07:56.175Z,99857.45
2019-03-09T10:10:24.693Z,99869.05
2019-03-09T10:12:55.739Z,99853.83
2019-03-09T10:15:25.656Z,99853.83
2019-03-09T10:17:54.142Z,99874.86
2019-03-09T10:20:22.767Z,99878.23
2019-03-09T10:22:51.282Z,99886.43
2019-03-09T10:25:19.739Z,99881.53
2019-03-09T10:27:48.287Z,99897.61
2019-03-09T10:30:23.478Z,99886.92
2019-03-09T10:32:52.007Z,99899.97
2019-03-09T10:35:20.639Z,99892.10
2019-03-09T10:37:49.883Z,99894.67
2019-03-09T10:40:19.003Z,99894.67
2019-03-09T10:42:47.428Z,99898.91
2019-03-09T10:45:20.019Z,99898.88
2019-03-09T10:47:48.658Z,99887.73
2019-03-09T10:50:17.793Z,99905.12
2019-03-09T10:52:46.342Z,99888.23
2019-03-09T10:55:17.812Z,99891.55
2019-03-09T10:57:46.187Z,99885.66
2019-03-09T11:00:17.629Z,99890.30
2019-03-09T11:02:46.039Z,99881.36
2019-03-09T11:05:14.500Z,99880.94
2019-03-09T11:07:42.897Z,99872.72
2019-03-09T11:10:11.803Z,99853.46
2019-03-09T11:12:40.461Z,99842.16
2019-03-09T11:15:09.205Z,99834.55
2019-03-09T11:17:37.592Z,99833.16
2019-03-09T11:20:09.219Z,99840.94
2019-03-09T11:22:37.625Z,99838.78
2019-03-09T11:25:06.677Z,99817.91
2019-03-09T11:27:35.097Z,99817.91
2019-03-09T11:30:04.191Z,99831.11
2019-03-09T11:32:32.611Z,99834.91
2019-03-09T11:35:01.013Z,99847.09
2019-03-09T11:37:29.420Z,99866.84
2019-03-09T11:39:57.921Z,99858.13
2019-03-09T11:42:26.332Z,99855.66
2019-03-09T11:44:54.764Z,99855.66
2019-03-09T11:47:23.290Z,99855.69
2019-03-09T11:49:51.715Z,99792.63
2019-03-09T11:52:20.712Z,99850.82
2019-03-09T11:54:49.160Z,99866.77
2019-03-09T11:57:17.578Z,99864.30
2019-03-09T11:59:46.009Z,99849.86
2019-03-09T12:02:14.432Z,99862.22
2019-03-09T12:04:46.695Z,99843.05
2019-03-09T12:07:13.016Z,99845.23
2019-03-09T12:09:41.455Z,99839.25
2019-03-09T12:12:09.855Z,99833.81
2019-03-09T12:14:38.353Z,99833.81
2019-03-09T12:17:12.417Z,99841.48
2019-03-09T12:19:37.007Z,99842.41
2019-03-09T12:22:05.492Z,99846.13
2019-03-09T12:24:33.954Z,99829.95
2019-03-09T12:27:02.445Z,99832.07
2019-03-09T12:29:30.918Z,99827.53
2019-03-09T12:31:59.358Z,99828.23
2019-03-09T12:34:27.752Z,99829.09
2019-03-09T12:36:56.205Z,99833.23
2019-03-09T12:39:24.608Z,99839.31
2019-03-09T12:41:53.047Z,99832.02
2019-03-09T12:44:21.508Z,99834.31
2019-03-09T12:46:49.928Z,99836.64
2019-03-09T12:49:18.644Z,99848.03
2019-03-09T12:51:47.075Z,99831.14
2019-03-09T12:54:15.473Z,99834.30
2019-03-09T12:56:43.901Z,99828.31
2019-03-09T12:59:12.295Z,99820.27
2019-03-09T13:01:40.730Z,99813.05
2019-03-09T13:04:10.847Z,99810.08
2019-03-09T13:06:39.315Z,99800.20
2019-03-09T13:09:08.131Z,99788.42
2019-03-09T13:11:36.640Z,99785.69
2019-03-09T13:14:05.249Z,99785.69
2019-03-09T13:16:33.624Z,99742.17
2019-03-09T13:19:02.025Z,99763.72
2019-03-09T13:21:30.446Z,99729.65
2019-03-09T13:23:58.870Z,99728.68
2019-03-09T13:26:27.389Z,99739.23
2019-03-09T13:28:55.786Z,99734.86
2019-03-09T13:31:24.168Z,99734.86
2019-03-09T13:33:52.569Z,99726.68
2019-03-09T13:36:20.981Z,99725.66
2019-03-09T13:38:49.401Z,99725.66
2019-03-09T13:41:17.824Z,99693.60
2019-03-09T13:43:46.268Z,99648.39
2019-03-09T13:46:14.682Z,99648.39
2019-03-09T13:48:43.123Z,99647.03
2019-03-09T13:51:11.502Z,99664.27
2019-03-09T13:53:39.921Z,99658.72
2019-03-09T13:56:08.314Z,99657.94
2019-03-09T13:58:36.708Z,99657.94
2019-03-09T14:01:05.171Z,99647.33
2019-03-09T14:03:33.567Z,99657.33
2019-03-09T14:06:01.969Z,99657.33
2019-03-09T14:08:30.426Z,99678.98
2019-03-09T14:10:58.854Z,99677.02
2019-03-09T14:13:27.514Z,99663.20
2019-03-09T14:15:55.931Z,99673.33
2019-03-09T14:18:24.325Z,99678.35
2019-03-09T14:20:52.782Z,99657.29
2019-03-09T14:23:21.181Z,99652.06
2019-03-09T14:25:49.568Z,99650.36
2019-03-09T14:28:17.966Z,99650.36
2019-03-09T14:30:46.443Z,99655.66
2019-03-09T14:33:14.826Z,99632.84
2019-03-09T14:35:43.339Z,99646.46
2019-03-09T14:38:11.748Z,99642.34
2019-03-09T14:40:40.180Z,99647.67
2019-03-09T14:43:08.587Z,99631.29
2019-03-09T14:45:37.008Z,99634.11
2019-03-09T14:48:05.435Z,99632.83
2019-03-09T14:50:33.822Z,99634.15
2019-03-09T14:53:02.291Z,99627.32
2019-03-09T14:55:30.770Z,99548.07
2019-03-09T14:57:59.172Z,99629.04
2019-03-09T15:00:28.179Z,99597.13
2019-03-09T15:02:56.707Z,99597.13
2019-03-09T15:05:25.256Z,99598.13
2019-03-09T15:07:53.724Z,99589.09
2019-03-09T15:10:22.307Z,99577.38
2019-03-09T15:12:50.752Z,99583.17
2019-03-09T15:15:20.482Z,99578.49
2019-03-09T15:17:48.938Z,99576.75
2019-03-09T15:20:17.655Z,99582.98
2019-03-09T15:22:46.087Z,99581.30
2019-03-09T15:25:16.235Z,99581.30
2019-03-09T15:27:44.766Z,99587.39
2019-03-09T15:30:18.000Z,99584.19
2019-03-09T15:32:46.463Z,99594.42
2019-03-09T15:35:16.621Z,99594.42
2019-03-09T15:37:45.384Z,99604.75
2019-03-09T15:40:17.772Z,99606.84
2019-03-09T15:42:46.208Z,99605.39
2019-03-09T15:45:16.241Z,99605.39
2019-03-09T15:47:44.703Z,99603.38
2019-03-09T15:50:17.497Z,99594.88
2019-03-09T15:52:45.908Z,99598.45
2019-03-09T15:55:14.444Z,99599.27
2019-03-09T15:57:42.851Z,99584.82
2019-03-09T16:00:14.152Z,99602.69
2019-03-09T16:02:42.621Z,99589.75
2019-03-09T16:05:11.159Z,99584.91
2019-03-09T16:07:39.636Z,99584.91
2019-03-09T16:10:11.378Z,99608.17
2019-03-09T16:12:39.782Z,99586.23
2019-03-09T16:15:10.464Z,99605.28
2019-03-09T16:17:38.867Z,99593.71
2019-03-09T16:20:15.558Z,99577.11
2019-03-09T16:22:43.978Z,99580.08
2019-03-09T16:25:12.619Z,99590.37
2019-03-09T16:27:41.080Z,99590.37
2019-03-09T16:30:15.134Z,99576.84
2019-03-09T16:32:43.556Z,99575.73
2019-03-09T16:35:12.216Z,99579.25
2019-03-09T16:37:40.623Z,99564.55
2019-03-09T16:40:15.115Z,99564.55
2019-03-09T16:42:43.511Z,99549.95
2019-03-09T16:45:13.564Z,99557.03
2019-03-09T16:47:41.995Z,99556.72
2019-03-09T16:50:17.707Z,99545.42
2019-03-09T16:52:46.216Z,99545.42
2019-03-09T16:55:14.858Z,99571.43
2019-03-09T16:57:43.333Z,99566.95
2019-03-09T17:00:24.717Z,99572.66
2019-03-09T17:02:53.195Z,99548.92
2019-03-09T17:05:21.635Z,99565.81
2019-03-09T17:07:50.030Z,99565.94
2019-03-09T17:10:19.501Z,99567.05
2019-03-09T17:12:48.245Z,99577.97
2019-03-09T17:15:21.852Z,99598.63
2019-03-09T17:17:50.320Z,99613.97
2019-03-09T17:20:18.989Z,99619.28
2019-03-09T17:22:47.398Z,99612.33
2019-03-09T17:25:16.286Z,99634.24
2019-03-09T17:27:44.699Z,99650.70
2019-03-09T17:30:15.619Z,99650.70
2019-03-09T17:32:44.111Z,99638.16
2019-03-09T17:35:13.042Z,99661.22
2019-03-09T17:37:41.473Z,99677.42
2019-03-09T17:40:12.362Z,99680.60
2019-03-09T17:42:40.835Z,99680.60
2019-03-09T17:45:12.357Z,99691.63
2019-03-09T17:47:40.770Z,99690.49
2019-03-09T17:50:11.812Z,99694.16
2019-03-09T17:52:40.202Z,99698.45
2019-03-09T17:55:10.258Z,99712.22
2019-03-09T17:57:38.805Z,99698.91
2019-03-09T18:00:13.582Z,99693.28
2019-03-09T18:02:42.084Z,99708.74
2019-03-09T18:05:10.481Z,99718.93
2019-03-09T18:07:38.888Z,99734.72
2019-03-09T18:10:10.718Z,99748.11
2019-03-09T18:12:40.520Z,99756.25
2019-03-09T18:15:10.111Z,99757.21
2019-03-09T18:17:38.524Z,99761.93
2019-03-09T18:20:09.576Z,99762.70
2019-03-09T18:22:38.008Z,99764.66
2019-03-09T18:25:07.382Z,99772.17
2019-03-09T18:27:35.834Z,99778.48
2019-03-09T18:30:06.198Z,99785.93
2019-03-09T18:32:34.651Z,99786.66
2019-03-09T18:35:03.096Z,99787.16
2019-03-09T18:37:31.712Z,99791.47
2019-03-09T18:40:00.320Z,99792.61
2019-03-09T18:42:28.688Z,99791.78
2019-03-09T18:44:57.087Z,99795.84
2019-03-09T18:47:25.659Z,99823.20
2019-03-09T18:49:54.076Z,99825.58
2019-03-09T18:52:22.579Z,99830.24
2019-03-09T18:54:51.052Z,99842.68
2019-03-09T18:57:19.506Z,99838.34
2019-03-09T18:59:47.905Z,99854.21
2019-03-09T19:02:16.387Z,99834.24
2019-03-09T19:04:44.809Z,99835.78
2019-03-09T19:07:13.208Z,99846.89
2019-03-09T19:09:41.660Z,99847.26
2019-03-09T19:12:10.131Z,99855.72
2019-03-09T19:14:38.546Z,99860.34
2019-03-09T19:17:06.945Z,99867.02
2019-03-09T19:19:35.625Z,99876.98
2019-03-09T19:22:04.110Z,99867.88
2019-03-09T19:24:32.539Z,99868.20
2019-03-09T19:27:01.069Z,99889.56
2019-03-09T19:29:29.493Z,99890.38
2019-03-09T19:31:57.901Z,99877.13
2019-03-09T19:34:26.408Z,99890.84
2019-03-09T19:36:54.808Z,99898.12
2019-03-09T19:39:23.294Z,99895.08
2019-03-09T19:41:51.716Z,99899.12
2019-03-09T19:44:20.131Z,99909.59
2019-03-09T19:46:48.546Z,99900.67
2019-03-09T19:49:16.941Z,99905.15
2019-03-09T19:51:45.378Z,99900.70
2019-03-09T19:54:13.822Z,99846.95
2019-03-09T19:56:42.218Z,99912.82
2019-03-09T19:59:10.612Z,99913.14
2019-03-09T20:01:39.030Z,99911.81
2019-03-09T20:04:07.540Z,99913.29
2019-03-09T20:06:35.945Z,99920.70
2019-03-09T20:09:06.281Z,99910.95
2019-03-09T20:11:34.758Z,99907.80
2019-03-09T20:14:03.219Z,99910.64
2019-03-09T20:16:31.634Z,99918.95
2019-03-09T20:19:00.034Z,99913.47
2019-03-09T20:21:28.742Z,99908.63
2019-03-09T20:23:57.223Z,99915.30
2019-03-09T20:26:25.704Z,99910.38
2019-03-09T20:28:54.209Z,99907.63
2019-03-09T20:31:22.719Z,99909.77
2019-03-09T20:33:51.128Z,99912.92
2019-03-09T20:36:19.644Z,99907.27
2019-03-09T20:38:48.076Z,99911.09
2019-03-09T20:41:16.537Z,99908.59
2019-03-09T20:43:44.953Z,99907.77
2019-03-09T20:46:13.380Z,99908.30
2019-03-09T20:48:41.788Z,99908.59
2019-03-09T20:51:10.430Z,99903.33
2019-03-09T20:53:38.841Z,99915.62
2019-03-09T20:56:07.402Z,99910.23
2019-03-09T20:58:35.794Z,99909.09
2019-03-09T21:03:34.594Z,99914.54
2019-03-09T21:06:03.047Z,99909.59
2019-03-09T21:08:31.481Z,99914.58
2019-03-09T21:11:03.888Z,99910.42
2019-03-09T21:13:30.033Z,99919.05
2019-03-09T21:15:58.584Z,99912.60
2019-03-09T21:18:26.997Z,99915.61
2019-03-09T21:20:55.458Z,99917.66
2019-03-09T21:23:25.027Z,99916.83
2019-03-09T21:25:53.406Z,99918.83
2019-03-09T21:28:21.847Z,99930.91
2019-03-09T21:30:50.244Z,99926.04
2019-03-09T21:33:18.640Z,99936.77
2019-03-09T21:35:47.039Z,99936.77
2019-03-09T21:38:15.657Z,99941.70
2019-03-09T21:40:44.126Z,99943.61
2019-03-09T21:43:12.539Z,99936.27
2019-03-09T21:45:40.973Z,99929.30
2019-03-09T21:48:09.390Z,99938.59
2019-03-09T21:50:37.802Z,99931.56
2019-03-09T21:53:06.358Z,99928.23
2019-03-09T21:55:34.766Z,99938.81
2019-03-09T21:58:03.166Z,99940.59
2019-03-09T22:00:31.675Z,99939.84
2019-03-09T22:03:00.158Z,99924.42
2019-03-09T22:05:28.615Z,99930.73
2019-03-09T22:07:57.107Z,99930.73
2019-03-09T22:10:25.528Z,99927.58
2019-03-09T22:12:53.920Z,99920.27
2019-03-09T22:15:22.311Z,99923.06
2019-03-09T22:17:50.780Z,99927.92
2019-03-09T22:20:20.631Z,99915.30
2019-03-09T22:22:49.195Z,99925.91
2019-03-09T22:25:17.925Z,99931.64
2019-03-09T22:27:46.320Z,99926.70
2019-03-09T22:30:20.780Z,99920.89
2019-03-09T22:32:49.286Z,99922.53
2019-03-09T22:35:17.745Z,99926.12
2019-03-09T22:37:46.258Z,99908.78
2019-03-09T22:40:18.616Z,99920.27
2019-03-09T22:42:47.183Z,99920.08
2019-03-09T22:45:16.052Z,99918.25
2019-03-09T22:47:44.534Z,99922.05
2019-03-09T22:50:17.834Z,99910.15
2019-03-09T22:52:46.335Z,99909.45
2019-03-09T22:55:14.870Z,99903.47
2019-03-09T22:57:43.338Z,99892.58
2019-03-09T23:00:14.870Z,99897.84
2019-03-09T23:02:44.922Z,99890.73
2019-03-09T23:05:13.978Z,99883.33
2019-03-09T23:07:42.734Z,99887.63
2019-03-09T23:10:16.595Z,99880.25
2019-03-09T23:12:45.051Z,99881.77
2019-03-09T23:15:15.296Z,99887.53
2019-03-09T23:17:44.446Z,99884.23
2019-03-09T23:20:14.970Z,99885.61
2019-03-09T23:22:43.559Z,99881.13
2019-03-09T23:25:13.388Z,99885.74
2019-03-09T23:27:41.966Z,99875.77
2019-03-09T23:30:13.422Z,99864.69
2019-03-09T23:32:41.840Z,99857.69
2019-03-09T23:35:10.396Z,99850.88
2019-03-09T23:37:38.881Z,99862.86
2019-03-09T23:40:12.726Z,99851.70
2019-03-09T23:42:41.194Z,99857.19
2019-03-09T23:45:15.320Z,99837.60
2019-03-09T23:47:43.960Z,99829.64
2019-03-09T23:50:14.614Z,99819.95
2019-03-09T23:52:43.155Z,99829.64
2019-03-09T23:55:21.285Z,99820.72
2019-03-09T23:57:42.303Z,99820.53
